sensor_id;sensor_type;location;lat;lon;timestamp;pressure;altitude;pressure_sealevel;temperature;humidity
78459;BME280;67753;42.684;23.330;2023-07-13T00:01:26;95261.22;;;24.35;64.33
78459;BME280;67753;42.684;23.330;2023-07-13T00:03:28;95258.75;;;24.53;63.75
78459;BME280;67753;42.684;23.330;2023-07-13T00:05:35;95253.81;;;24.61;63.02
78459;BME280;67753;42.684;23.330;2023-07-13T00:07:37;95262.59;;;24.43;63.66
78459;BME280;67753;42.684;23.330;2023-07-13T00:09:39;95256.19;;;24.33;64.30
78459;BME280;67753;42.684;23.330;2023-07-13T00:11:42;95256.84;;;24.25;64.73
78459;BME280;67753;42.684;23.330;2023-07-13T00:13:49;95259.34;;;24.32;64.11
78459;BME280;67753;42.684;23.330;2023-07-13T00:15:51;95253.81;;;24.48;63.53
78459;BME280;67753;42.684;23.330;2023-07-13T00:17:58;95255.66;;;24.89;61.64
78459;BME280;67753;42.684;23.330;2023-07-13T00:20:02;95260.56;;;25.07;61.13
78459;BME280;67753;42.684;23.330;2023-07-13T00:22:05;95257.75;;;24.72;62.12
78459;BME280;67753;42.684;23.330;2023-07-13T00:24:08;95252.50;;;24.40;62.97
78459;BME280;67753;42.684;23.330;2023-07-13T00:26:13;95240.59;;;24.17;64.13
78459;BME280;67753;42.684;23.330;2023-07-13T00:28:15;95252.91;;;24.26;63.58
78459;BME280;67753;42.684;23.330;2023-07-13T00:30:18;95249.38;;;24.12;64.11
78459;BME280;67753;42.684;23.330;2023-07-13T00:32:19;95247.28;;;24.16;64.20
78459;BME280;67753;42.684;23.330;2023-07-13T00:34:22;95247.09;;;24.23;63.61
78459;BME280;67753;42.684;23.330;2023-07-13T00:36:24;95237.75;;;24.08;64.95
78459;BME280;67753;42.684;23.330;2023-07-13T00:38:26;95238.72;;;24.02;64.85
78459;BME280;67753;42.684;23.330;2023-07-13T00:40:28;95237.84;;;23.92;65.36
78459;BME280;67753;42.684;23.330;2023-07-13T00:42:30;95240.13;;;23.81;66.00
78459;BME280;67753;42.684;23.330;2023-07-13T00:44:32;95233.56;;;23.91;65.95
78459;BME280;67753;42.684;23.330;2023-07-13T00:46:34;95234.53;;;23.84;66.39
78459;BME280;67753;42.684;23.330;2023-07-13T00:48:37;95232.31;;;23.50;67.17
78459;BME280;67753;42.684;23.330;2023-07-13T00:50:40;95240.00;;;23.55;67.81
78459;BME280;67753;42.684;23.330;2023-07-13T00:52:45;95238.78;;;23.73;67.21
78459;BME280;67753;42.684;23.330;2023-07-13T00:54:48;95233.31;;;23.73;67.61
78459;BME280;67753;42.684;23.330;2023-07-13T00:56:51;95236.28;;;23.78;67.44
78459;BME280;67753;42.684;23.330;2023-07-13T00:58:55;95235.50;;;23.78;67.50
78459;BME280;67753;42.684;23.330;2023-07-13T01:00:55;95243.09;;;23.86;67.36
78459;BME280;67753;42.684;23.330;2023-07-13T01:02:57;95234.06;;;23.73;67.54
78459;BME280;67753;42.684;23.330;2023-07-13T01:04:59;95231.09;;;23.67;68.03
78459;BME280;67753;42.684;23.330;2023-07-13T01:07:04;95229.53;;;23.66;68.04
78459;BME280;67753;42.684;23.330;2023-07-13T01:09:08;95225.31;;;23.49;68.98
78459;BME280;67753;42.684;23.330;2023-07-13T01:11:10;95223.13;;;23.44;69.44
78459;BME280;67753;42.684;23.330;2023-07-13T01:13:12;95221.09;;;23.32;69.97
78459;BME280;67753;42.684;23.330;2023-07-13T01:15:35;95232.50;;;23.43;69.71
78459;BME280;67753;42.684;23.330;2023-07-13T01:17:38;95219.56;;;23.31;70.60
78459;BME280;67753;42.684;23.330;2023-07-13T01:19:42;95223.13;;;23.44;70.54
78459;BME280;67753;42.684;23.330;2023-07-13T01:21:50;95223.13;;;23.44;70.47
78459;BME280;67753;42.684;23.330;2023-07-13T01:23:53;95220.03;;;23.42;70.39
78459;BME280;67753;42.684;23.330;2023-07-13T01:25:56;95216.28;;;23.36;70.58
78459;BME280;67753;42.684;23.330;2023-07-13T01:27:58;95213.72;;;23.45;70.67
78459;BME280;67753;42.684;23.330;2023-07-13T01:29:59;95222.44;;;23.40;70.73
78459;BME280;67753;42.684;23.330;2023-07-13T01:32:05;95216.47;;;23.29;71.48
78459;BME280;67753;42.684;23.330;2023-07-13T01:34:08;95210.91;;;23.32;71.55
78459;BME280;67753;42.684;23.330;2023-07-13T01:36:11;95212.22;;;23.28;71.75
78459;BME280;67753;42.684;23.330;2023-07-13T01:38:17;95210.44;;;23.21;72.08
78459;BME280;67753;42.684;23.330;2023-07-13T01:40:19;95212.06;;;23.18;72.40
78459;BME280;67753;42.684;23.330;2023-07-13T01:42:21;95214.84;;;23.31;72.33
78459;BME280;67753;42.684;23.330;2023-07-13T01:44:23;95211.66;;;23.20;72.90
78459;BME280;67753;42.684;23.330;2023-07-13T01:46:26;95208.00;;;23.10;73.43
78459;BME280;67753;42.684;23.330;2023-07-13T01:48:28;95209.47;;;23.28;72.97
78459;BME280;67753;42.684;23.330;2023-07-13T01:50:30;95210.97;;;23.16;73.32
78459;BME280;67753;42.684;23.330;2023-07-13T01:52:32;95209.84;;;23.13;73.63
78459;BME280;67753;42.684;23.330;2023-07-13T01:54:35;95207.47;;;23.15;73.91
78459;BME280;67753;42.684;23.330;2023-07-13T01:56:37;95199.78;;;23.10;74.33
78459;BME280;67753;42.684;23.330;2023-07-13T01:58:40;95209.28;;;23.06;74.54
78459;BME280;67753;42.684;23.330;2023-07-13T02:00:41;95211.75;;;23.00;74.69
78459;BME280;67753;42.684;23.330;2023-07-13T02:02:43;95213.78;;;23.12;74.77
78459;BME280;67753;42.684;23.330;2023-07-13T02:04:45;95222.88;;;22.93;74.99
78459;BME280;67753;42.684;23.330;2023-07-13T02:06:47;95212.00;;;22.73;75.98
78459;BME280;67753;42.684;23.330;2023-07-13T02:08:49;95217.66;;;22.82;76.25
78459;BME280;67753;42.684;23.330;2023-07-13T02:10:52;95215.75;;;22.95;75.77
78459;BME280;67753;42.684;23.330;2023-07-13T02:12:53;95226.28;;;22.97;75.73
78459;BME280;67753;42.684;23.330;2023-07-13T02:14:55;95222.69;;;23.00;75.73
78459;BME280;67753;42.684;23.330;2023-07-13T02:16:57;95217.22;;;22.84;76.74
78459;BME280;67753;42.684;23.330;2023-07-13T02:18:59;95220.97;;;22.90;76.50
78459;BME280;67753;42.684;23.330;2023-07-13T02:21:02;95218.25;;;22.90;76.18
78459;BME280;67753;42.684;23.330;2023-07-13T02:23:04;95224.88;;;23.05;75.89
78459;BME280;67753;42.684;23.330;2023-07-13T02:25:06;95216.63;;;22.92;76.60
78459;BME280;67753;42.684;23.330;2023-07-13T02:27:10;95224.97;;;22.85;77.02
78459;BME280;67753;42.684;23.330;2023-07-13T02:29:11;95222.31;;;22.82;77.26
78459;BME280;67753;42.684;23.330;2023-07-13T02:31:14;95229.78;;;22.98;76.99
78459;BME280;67753;42.684;23.330;2023-07-13T02:33:17;95220.78;;;22.81;77.65
78459;BME280;67753;42.684;23.330;2023-07-13T02:35:19;95216.00;;;22.85;77.66
78459;BME280;67753;42.684;23.330;2023-07-13T02:37:20;95220.56;;;22.91;77.59
78459;BME280;67753;42.684;23.330;2023-07-13T02:39:21;95212.09;;;22.69;78.63
78459;BME280;67753;42.684;23.330;2023-07-13T02:41:23;95224.81;;;22.76;78.16
78459;BME280;67753;42.684;23.330;2023-07-13T02:43:27;95218.50;;;22.47;79.51
78459;BME280;67753;42.684;23.330;2023-07-13T02:45:30;95221.22;;;22.63;79.10
78459;BME280;67753;42.684;23.330;2023-07-13T02:47:32;95220.72;;;22.68;79.12
78459;BME280;67753;42.684;23.330;2023-07-13T02:49:34;95219.09;;;22.87;78.50
78459;BME280;67753;42.684;23.330;2023-07-13T02:51:35;95224.03;;;22.76;78.78
78459;BME280;67753;42.684;23.330;2023-07-13T02:53:37;95225.75;;;22.69;79.26
78459;BME280;67753;42.684;23.330;2023-07-13T02:55:38;95221.81;;;22.70;79.61
78459;BME280;67753;42.684;23.330;2023-07-13T02:57:41;95231.91;;;22.74;79.17
78459;BME280;67753;42.684;23.330;2023-07-13T02:59:44;95221.81;;;22.38;80.42
78459;BME280;67753;42.684;23.330;2023-07-13T03:01:45;95224.56;;;22.54;80.71
78459;BME280;67753;42.684;23.330;2023-07-13T03:03:47;95227.81;;;22.49;80.83
78459;BME280;67753;42.684;23.330;2023-07-13T03:05:58;95234.81;;;22.50;80.19
78459;BME280;67753;42.684;23.330;2023-07-13T03:08:00;95234.81;;;22.50;80.92
78459;BME280;67753;42.684;23.330;2023-07-13T03:10:02;95234.81;;;22.50;80.88
78459;BME280;67753;42.684;23.330;2023-07-13T03:12:06;95237.88;;;22.52;80.52
78459;BME280;67753;42.684;23.330;2023-07-13T03:14:07;95237.94;;;22.49;80.58
78459;BME280;67753;42.684;23.330;2023-07-13T03:16:11;95236.41;;;22.48;80.79
78459;BME280;67753;42.684;23.330;2023-07-13T03:18:12;95237.16;;;22.48;80.80
78459;BME280;67753;42.684;23.330;2023-07-13T03:20:14;95245.53;;;22.57;80.29
78459;BME280;67753;42.684;23.330;2023-07-13T03:22:17;95236.84;;;22.62;80.14
78459;BME280;67753;42.684;23.330;2023-07-13T03:24:18;95238.56;;;22.73;79.66
78459;BME280;67753;42.684;23.330;2023-07-13T03:26:20;95243.34;;;22.68;79.93
78459;BME280;67753;42.684;23.330;2023-07-13T03:28:22;95238.81;;;22.62;80.07
78459;BME280;67753;42.684;23.330;2023-07-13T03:30:25;95241.28;;;22.56;80.18
78459;BME280;67753;42.684;23.330;2023-07-13T03:32:28;95248.97;;;22.61;80.12
78459;BME280;67753;42.684;23.330;2023-07-13T03:34:30;95241.31;;;22.73;80.08
78459;BME280;67753;42.684;23.330;2023-07-13T03:36:32;95243.19;;;22.59;80.73
78459;BME280;67753;42.684;23.330;2023-07-13T03:38:34;95250.94;;;22.61;80.27
78459;BME280;67753;42.684;23.330;2023-07-13T03:40:36;95246.59;;;22.63;80.70
78459;BME280;67753;42.684;23.330;2023-07-13T03:42:38;95262.81;;;22.70;80.31
78459;BME280;67753;42.684;23.330;2023-07-13T03:44:40;95246.78;;;22.73;80.03
78459;BME280;67753;42.684;23.330;2023-07-13T03:46:42;95252.25;;;22.73;80.13
78459;BME280;67753;42.684;23.330;2023-07-13T03:48:46;95248.72;;;22.72;79.78
78459;BME280;67753;42.684;23.330;2023-07-13T03:50:49;95244.19;;;22.65;80.32
78459;BME280;67753;42.684;23.330;2023-07-13T03:52:51;95247.63;;;22.69;80.04
78459;BME280;67753;42.684;23.330;2023-07-13T03:54:53;95251.69;;;22.61;79.97
78459;BME280;67753;42.684;23.330;2023-07-13T03:56:55;95249.16;;;22.70;79.58
78459;BME280;67753;42.684;23.330;2023-07-13T03:58:57;95250.53;;;22.79;78.85
78459;BME280;67753;42.684;23.330;2023-07-13T04:00:58;95252.38;;;22.65;79.40
78459;BME280;67753;42.684;23.330;2023-07-13T04:03:00;95255.13;;;22.65;79.53
78459;BME280;67753;42.684;23.330;2023-07-13T04:05:02;95258.47;;;22.73;79.25
78459;BME280;67753;42.684;23.330;2023-07-13T04:07:04;95251.19;;;22.50;80.13
78459;BME280;67753;42.684;23.330;2023-07-13T04:09:08;95250.44;;;22.82;79.21
78459;BME280;67753;42.684;23.330;2023-07-13T04:11:09;95242.47;;;22.71;79.60
78459;BME280;67753;42.684;23.330;2023-07-13T04:13:10;95244.38;;;22.75;79.65
78459;BME280;67753;42.684;23.330;2023-07-13T04:15:12;95246.44;;;22.87;79.30
78459;BME280;67753;42.684;23.330;2023-07-13T04:17:14;95236.19;;;22.91;78.92
78459;BME280;67753;42.684;23.330;2023-07-13T04:19:17;95256.56;;;22.86;78.56
78459;BME280;67753;42.684;23.330;2023-07-13T04:21:20;95252.25;;;22.73;79.69
78459;BME280;67753;42.684;23.330;2023-07-13T04:23:22;95260.50;;;22.85;79.45
78459;BME280;67753;42.684;23.330;2023-07-13T04:25:24;95264.34;;;22.88;79.45
78459;BME280;67753;42.684;23.330;2023-07-13T04:27:25;95265.66;;;23.00;78.63
78459;BME280;67753;42.684;23.330;2023-07-13T04:29:28;95262.66;;;22.94;78.77
78459;BME280;67753;42.684;23.330;2023-07-13T04:31:32;95259.41;;;22.99;78.62
78459;BME280;67753;42.684;23.330;2023-07-13T04:33:34;95268.81;;;22.98;78.88
78459;BME280;67753;42.684;23.330;2023-07-13T04:35:36;95270.34;;;22.99;79.22
78459;BME280;67753;42.684;23.330;2023-07-13T04:37:38;95259.25;;;23.06;79.04
78459;BME280;67753;42.684;23.330;2023-07-13T04:39:40;95264.72;;;23.06;78.43
78459;BME280;67753;42.684;23.330;2023-07-13T04:41:42;95273.34;;;23.05;77.83
78459;BME280;67753;42.684;23.330;2023-07-13T04:43:44;95271.00;;;23.19;77.11
78459;BME280;67753;42.684;23.330;2023-07-13T04:45:46;95271.72;;;23.07;76.63
78459;BME280;67753;42.684;23.330;2023-07-13T04:47:48;95273.97;;;22.96;77.24
78459;BME280;67753;42.684;23.330;2023-07-13T04:49:50;95275.66;;;23.06;77.22
78459;BME280;67753;42.684;23.330;2023-07-13T04:51:52;95281.13;;;23.06;77.67
78459;BME280;67753;42.684;23.330;2023-07-13T04:53:57;95285.41;;;23.07;77.32
78459;BME280;67753;42.684;23.330;2023-07-13T04:55:59;95288.03;;;23.27;76.83
78459;BME280;67753;42.684;23.330;2023-07-13T04:58:02;95297.88;;;23.25;76.46
78459;BME280;67753;42.684;23.330;2023-07-13T05:00:05;95294.09;;;23.18;76.56
78459;BME280;67753;42.684;23.330;2023-07-13T05:02:07;95294.09;;;23.35;76.47
78459;BME280;67753;42.684;23.330;2023-07-13T05:04:09;95291.50;;;23.28;76.43
78459;BME280;67753;42.684;23.330;2023-07-13T05:06:11;95283.16;;;23.18;76.55
78459;BME280;67753;42.684;23.330;2023-07-13T05:08:14;95289.63;;;23.41;76.17
78459;BME280;67753;42.684;23.330;2023-07-13T05:10:17;95295.09;;;23.41;76.08
78459;BME280;67753;42.684;23.330;2023-07-13T05:12:19;95296.63;;;23.42;76.27
78459;BME280;67753;42.684;23.330;2023-07-13T05:14:21;95293.03;;;23.45;76.53
78459;BME280;67753;42.684;23.330;2023-07-13T05:16:23;95306.44;;;23.56;75.90
78459;BME280;67753;42.684;23.330;2023-07-13T05:18:25;95302.50;;;23.57;75.54
78459;BME280;67753;42.684;23.330;2023-07-13T05:20:27;95311.31;;;23.64;75.33
78459;BME280;67753;42.684;23.330;2023-07-13T05:22:29;95309.94;;;23.73;74.57
78459;BME280;67753;42.684;23.330;2023-07-13T05:24:31;95306.00;;;23.74;74.25
78459;BME280;67753;42.684;23.330;2023-07-13T05:26:34;95304.25;;;23.80;74.32
78459;BME280;67753;42.684;23.330;2023-07-13T05:28:37;95307.66;;;23.84;74.20
78459;BME280;67753;42.684;23.330;2023-07-13T05:30:39;95304.28;;;23.63;74.36
78459;BME280;67753;42.684;23.330;2023-07-13T05:32:40;95307.53;;;23.75;74.67
78459;BME280;67753;42.684;23.330;2023-07-13T05:34:42;95311.28;;;23.81;74.37
78459;BME280;67753;42.684;23.330;2023-07-13T05:36:45;95306.19;;;23.95;73.54
78459;BME280;67753;42.684;23.330;2023-07-13T05:38:46;95308.28;;;24.04;73.86
78459;BME280;67753;42.684;23.330;2023-07-13T05:40:50;95316.84;;;24.06;73.96
78459;BME280;67753;42.684;23.330;2023-07-13T05:42:53;95312.69;;;24.14;73.69
78459;BME280;67753;42.684;23.330;2023-07-13T05:44:55;95314.00;;;24.22;73.58
78459;BME280;67753;42.684;23.330;2023-07-13T05:46:57;95322.09;;;24.42;72.33
78459;BME280;67753;42.684;23.330;2023-07-13T05:48:59;95324.78;;;24.30;73.38
78459;BME280;67753;42.684;23.330;2023-07-13T05:51:01;95317.97;;;24.21;73.12
78459;BME280;67753;42.684;23.330;2023-07-13T05:53:04;95320.84;;;24.31;73.12
78459;BME280;67753;42.684;23.330;2023-07-13T05:55:05;95317.78;;;24.29;71.44
78459;BME280;67753;42.684;23.330;2023-07-13T05:57:07;95310.22;;;24.33;71.97
78459;BME280;67753;42.684;23.330;2023-07-13T05:59:12;95313.13;;;24.42;72.03
78459;BME280;67753;42.684;23.330;2023-07-13T06:01:16;95310.38;;;24.67;71.01
78459;BME280;67753;42.684;23.330;2023-07-13T06:03:19;95305.22;;;24.69;71.42
78459;BME280;67753;42.684;23.330;2023-07-13T06:05:20;95309.19;;;24.94;69.95
78459;BME280;67753;42.684;23.330;2023-07-13T06:07:22;95308.19;;;25.13;69.29
78459;BME280;67753;42.684;23.330;2023-07-13T06:09:24;95315.63;;;24.74;69.77
78459;BME280;67753;42.684;23.330;2023-07-13T06:11:26;95318.63;;;24.80;69.08
78459;BME280;67753;42.684;23.330;2023-07-13T06:13:30;95316.75;;;25.15;68.10
78459;BME280;67753;42.684;23.330;2023-07-13T06:15:32;95321.44;;;25.02;68.53
78459;BME280;67753;42.684;23.330;2023-07-13T06:17:34;95327.72;;;25.15;68.50
78459;BME280;67753;42.684;23.330;2023-07-13T06:19:36;95320.69;;;25.14;69.47
78459;BME280;67753;42.684;23.330;2023-07-13T06:21:38;95322.22;;;25.15;68.53
78459;BME280;67753;42.684;23.330;2023-07-13T06:23:40;95324.66;;;25.13;68.91
78459;BME280;67753;42.684;23.330;2023-07-13T06:25:43;95325.72;;;25.29;67.76
78459;BME280;67753;42.684;23.330;2023-07-13T06:27:45;95327.53;;;25.44;67.46
78459;BME280;67753;42.684;23.330;2023-07-13T06:29:47;95332.03;;;25.51;67.67
78459;BME280;67753;42.684;23.330;2023-07-13T06:31:51;95327.03;;;25.37;68.63
78459;BME280;67753;42.684;23.330;2023-07-13T06:33:53;95325.91;;;25.47;68.47
78459;BME280;67753;42.684;23.330;2023-07-13T06:35:55;95319.69;;;25.34;68.63
78459;BME280;67753;42.684;23.330;2023-07-13T06:37:57;95325.16;;;25.34;68.33
78459;BME280;67753;42.684;23.330;2023-07-13T06:39:57;95331.59;;;25.53;66.98
78459;BME280;67753;42.684;23.330;2023-07-13T06:41:59;95320.59;;;25.65;67.03
78459;BME280;67753;42.684;23.330;2023-07-13T06:44:01;95317.81;;;25.78;66.53
78459;BME280;67753;42.684;23.330;2023-07-13T06:46:03;95318.03;;;25.84;65.60
78459;BME280;67753;42.684;23.330;2023-07-13T06:48:06;95315.78;;;25.91;66.35
78459;BME280;67753;42.684;23.330;2023-07-13T06:50:09;95314.84;;;26.07;66.06
78459;BME280;67753;42.684;23.330;2023-07-13T06:52:11;95319.75;;;26.12;66.15
78459;BME280;67753;42.684;23.330;2023-07-13T06:54:14;95320.13;;;26.23;66.59
78459;BME280;67753;42.684;23.330;2023-07-13T06:56:16;95322.94;;;26.33;65.29
78459;BME280;67753;42.684;23.330;2023-07-13T06:58:18;95326.50;;;26.42;65.44
78459;BME280;67753;42.684;23.330;2023-07-13T07:00:21;95322.44;;;26.47;63.68
78459;BME280;67753;42.684;23.330;2023-07-13T07:02:23;95326.00;;;26.57;63.04
78459;BME280;67753;42.684;23.330;2023-07-13T07:04:28;95326.75;;;26.57;62.40
78459;BME280;67753;42.684;23.330;2023-07-13T07:06:30;95329.78;;;26.50;65.30
78459;BME280;67753;42.684;23.330;2023-07-13T07:08:32;95332.16;;;26.70;63.39
78459;BME280;67753;42.684;23.330;2023-07-13T07:10:35;95323.63;;;26.77;63.03
78459;BME280;67753;42.684;23.330;2023-07-13T07:12:37;95327.81;;;26.91;62.85
78459;BME280;67753;42.684;23.330;2023-07-13T07:14:38;95331.78;;;26.90;62.97
78459;BME280;67753;42.684;23.330;2023-07-13T07:16:39;95318.38;;;26.92;63.59
78459;BME280;67753;42.684;23.330;2023-07-13T07:18:41;95315.38;;;27.08;63.22
78459;BME280;67753;42.684;23.330;2023-07-13T07:20:44;95328.41;;;27.17;62.24
78459;BME280;67753;42.684;23.330;2023-07-13T07:22:46;95320.97;;;27.05;61.87
78459;BME280;67753;42.684;23.330;2023-07-13T07:24:48;95317.81;;;27.06;62.49
78459;BME280;67753;42.684;23.330;2023-07-13T07:26:50;95316.06;;;26.99;62.58
78459;BME280;67753;42.684;23.330;2023-07-13T07:28:52;95318.69;;;27.03;61.94
78459;BME280;67753;42.684;23.330;2023-07-13T07:30:57;95323.91;;;27.01;60.52
78459;BME280;67753;42.684;23.330;2023-07-13T07:32:58;95321.56;;;27.31;59.03
78459;BME280;67753;42.684;23.330;2023-07-13T07:35:01;95316.69;;;27.35;59.94
78459;BME280;67753;42.684;23.330;2023-07-13T07:37:05;95312.38;;;27.24;60.59
78459;BME280;67753;42.684;23.330;2023-07-13T07:39:07;95301.94;;;27.10;61.41
78459;BME280;67753;42.684;23.330;2023-07-13T07:41:09;95308.00;;;27.05;61.48
78459;BME280;67753;42.684;23.330;2023-07-13T07:43:12;95307.16;;;27.17;60.62
78459;BME280;67753;42.684;23.330;2023-07-13T07:45:15;95302.25;;;27.21;60.37
78459;BME280;67753;42.684;23.330;2023-07-13T07:47:17;95302.53;;;27.14;60.10
78459;BME280;67753;42.684;23.330;2023-07-13T07:49:18;95301.19;;;27.28;60.15
78459;BME280;67753;42.684;23.330;2023-07-13T07:51:20;95305.66;;;27.35;60.91
78459;BME280;67753;42.684;23.330;2023-07-13T07:53:24;95304.59;;;27.41;59.75
78459;BME280;67753;42.684;23.330;2023-07-13T07:55:26;95299.53;;;27.31;61.08
78459;BME280;67753;42.684;23.330;2023-07-13T07:57:28;95288.81;;;27.23;61.28
78459;BME280;67753;42.684;23.330;2023-07-13T07:59:30;95300.47;;;27.46;59.61
78459;BME280;67753;42.684;23.330;2023-07-13T08:01:32;95288.09;;;27.60;59.28
78459;BME280;67753;42.684;23.330;2023-07-13T08:03:34;95283.97;;;27.64;59.14
78459;BME280;67753;42.684;23.330;2023-07-13T08:05:36;95282.47;;;27.82;58.64
78459;BME280;67753;42.684;23.330;2023-07-13T08:07:38;95285.34;;;27.96;58.06
78459;BME280;67753;42.684;23.330;2023-07-13T08:09:42;95277.25;;;27.93;58.01
78459;BME280;67753;42.684;23.330;2023-07-13T08:11:44;95276.28;;;28.23;56.82
78459;BME280;67753;42.684;23.330;2023-07-13T08:13:46;95269.72;;;28.02;57.28
78459;BME280;67753;42.684;23.330;2023-07-13T08:15:48;95280.91;;;27.99;58.06
78459;BME280;67753;42.684;23.330;2023-07-13T08:17:50;95279.97;;;28.20;56.98
78459;BME280;67753;42.684;23.330;2023-07-13T08:19:52;95277.19;;;28.30;57.44
78459;BME280;67753;42.684;23.330;2023-07-13T08:21:54;95271.81;;;28.26;57.04
78459;BME280;67753;42.684;23.330;2023-07-13T08:23:56;95263.72;;;28.13;57.69
78459;BME280;67753;42.684;23.330;2023-07-13T08:26:00;95267.69;;;28.31;56.06
78459;BME280;67753;42.684;23.330;2023-07-13T08:28:01;95270.28;;;28.86;54.09
78459;BME280;67753;42.684;23.330;2023-07-13T08:30:04;95269.78;;;28.87;54.46
78459;BME280;67753;42.684;23.330;2023-07-13T08:32:08;95264.78;;;28.76;54.77
78459;BME280;67753;42.684;23.330;2023-07-13T08:34:11;95258.63;;;28.82;55.50
78459;BME280;67753;42.684;23.330;2023-07-13T08:36:15;95270.34;;;28.67;56.60
78459;BME280;67753;42.684;23.330;2023-07-13T08:38:17;95257.16;;;28.71;55.62
78459;BME280;67753;42.684;23.330;2023-07-13T08:40:20;95255.63;;;28.70;56.10
78459;BME280;67753;42.684;23.330;2023-07-13T08:42:37;95255.22;;;28.96;55.20
78459;BME280;67753;42.684;23.330;2023-07-13T08:44:49;95253.97;;;28.97;55.39
78459;BME280;67753;42.684;23.330;2023-07-13T08:46:58;95249.13;;;28.83;54.97
78459;BME280;67753;42.684;23.330;2023-07-13T08:49:02;95257.41;;;28.83;55.76
78459;BME280;67753;42.684;23.330;2023-07-13T08:51:12;95256.41;;;29.04;55.41
78459;BME280;67753;42.684;23.330;2023-07-13T08:53:18;95253.22;;;29.20;54.29
78459;BME280;67753;42.684;23.330;2023-07-13T08:55:25;95257.94;;;29.05;54.95
78459;BME280;67753;42.684;23.330;2023-07-13T08:57:32;95260.09;;;29.25;55.53
78459;BME280;67753;42.684;23.330;2023-07-13T08:59:37;95260.75;;;29.20;55.03
78459;BME280;67753;42.684;23.330;2023-07-13T09:01:53;95267.00;;;29.44;53.46
78459;BME280;67753;42.684;23.330;2023-07-13T09:04:02;95276.97;;;29.51;53.36
78459;BME280;67753;42.684;23.330;2023-07-13T09:06:06;95275.69;;;29.61;53.79
78459;BME280;67753;42.684;23.330;2023-07-13T09:08:24;95274.75;;;29.64;54.28
78459;BME280;67753;42.684;23.330;2023-07-13T09:10:37;95286.00;;;29.75;52.62
78459;BME280;67753;42.684;23.330;2023-07-13T09:12:53;95287.94;;;29.99;52.45
78459;BME280;67753;42.684;23.330;2023-07-13T09:14:59;95291.03;;;30.16;51.19
78459;BME280;67753;42.684;23.330;2023-07-13T09:17:08;95289.25;;;30.27;52.23
78459;BME280;67753;42.684;23.330;2023-07-13T09:19:20;95285.09;;;30.08;51.65
78459;BME280;67753;42.684;23.330;2023-07-13T09:21:27;95283.44;;;30.25;51.25
78459;BME280;67753;42.684;23.330;2023-07-13T09:23:31;95281.13;;;30.39;51.52
78459;BME280;67753;42.684;23.330;2023-07-13T09:25:33;95284.66;;;30.54;50.67
78459;BME280;67753;42.684;23.330;2023-07-13T09:27:39;95287.22;;;30.43;51.39
78459;BME280;67753;42.684;23.330;2023-07-13T09:29:45;95280.94;;;30.27;52.13
78459;BME280;67753;42.684;23.330;2023-07-13T09:31:53;95286.09;;;30.35;50.26
78459;BME280;67753;42.684;23.330;2023-07-13T09:33:56;95286.56;;;30.33;51.29
78459;BME280;67753;42.684;23.330;2023-07-13T09:35:58;95295.41;;;30.82;49.25
78459;BME280;67753;42.684;23.330;2023-07-13T09:38:10;95289.88;;;30.82;49.04
78459;BME280;67753;42.684;23.330;2023-07-13T09:40:18;95287.56;;;30.95;48.82
78459;BME280;67753;42.684;23.330;2023-07-13T09:42:23;95282.25;;;30.76;50.20
78459;BME280;67753;42.684;23.330;2023-07-13T09:44:29;95283.41;;;30.55;51.23
78459;BME280;67753;42.684;23.330;2023-07-13T09:46:32;95279.22;;;30.74;49.40
78459;BME280;67753;42.684;23.330;2023-07-13T09:48:36;95271.75;;;30.80;50.30
78459;BME280;67753;42.684;23.330;2023-07-13T09:50:38;95264.31;;;30.87;50.28
78459;BME280;67753;42.684;23.330;2023-07-13T09:52:42;95266.47;;;30.97;49.51
78459;BME280;67753;42.684;23.330;2023-07-13T09:54:46;95255.44;;;30.83;48.92
78459;BME280;67753;42.684;23.330;2023-07-13T09:56:54;95258.69;;;31.16;48.02
78459;BME280;67753;42.684;23.330;2023-07-13T09:58:58;95256.94;;;31.34;48.45
78459;BME280;67753;42.684;23.330;2023-07-13T10:01:03;95253.53;;;31.09;49.55
78459;BME280;67753;42.684;23.330;2023-07-13T10:03:16;95245.28;;;31.15;49.40
78459;BME280;67753;42.684;23.330;2023-07-13T10:05:22;95241.63;;;31.23;49.73
78459;BME280;67753;42.684;23.330;2023-07-13T10:07:25;95239.56;;;31.18;49.90
78459;BME280;67753;42.684;23.330;2023-07-13T10:09:27;95228.91;;;31.11;51.66
78459;BME280;67753;42.684;23.330;2023-07-13T10:11:30;95229.31;;;31.04;51.72
78459;BME280;67753;42.684;23.330;2023-07-13T10:13:35;95233.38;;;31.44;48.20
78459;BME280;67753;42.684;23.330;2023-07-13T10:15:38;95228.03;;;31.40;49.85
78459;BME280;67753;42.684;23.330;2023-07-13T10:17:40;95232.66;;;31.28;51.21
78459;BME280;67753;42.684;23.330;2023-07-13T10:19:45;95236.84;;;31.39;49.61
78459;BME280;67753;42.684;23.330;2023-07-13T10:21:54;95236.69;;;31.48;50.13
78459;BME280;67753;42.684;23.330;2023-07-13T10:23:58;95235.00;;;31.56;48.22
78459;BME280;67753;42.684;23.330;2023-07-13T10:26:12;95242.19;;;31.89;46.23
78459;BME280;67753;42.684;23.330;2023-07-13T10:28:25;95224.81;;;31.68;47.02
78459;BME280;67753;42.684;23.330;2023-07-13T10:30:30;95231.22;;;31.79;45.04
78459;BME280;67753;42.684;23.330;2023-07-13T10:32:34;95227.34;;;31.92;46.63
78459;BME280;67753;42.684;23.330;2023-07-13T10:34:37;95219.44;;;32.68;40.32
78459;BME280;67753;42.684;23.330;2023-07-13T10:36:43;95220.84;;;33.32;36.23
78459;BME280;67753;42.684;23.330;2023-07-13T10:38:47;95223.00;;;33.12;35.63
78459;BME280;67753;42.684;23.330;2023-07-13T10:40:56;95227.97;;;33.45;34.18
78459;BME280;67753;42.684;23.330;2023-07-13T10:43:01;95226.44;;;33.44;35.00
78459;BME280;67753;42.684;23.330;2023-07-13T10:45:13;95219.69;;;33.07;35.79